Sao Joaquim da Barra, Brazil
Current Conditions -  °F | °C
As of 1:00 AM on Thursday 23 Oct 2014 (Local Time) from SBRP Reporting Station
Clear Clear  
Wind Chill: 75°   Ceiling: Unl
Heat Index: 75°   Visibility: 6mi
Dew Point: 57°   Wind: 13mph
Humidity: 53%   Direction: 140°SE
Pressure: 30.03"   Gusts: NA
Location:  20.58°S, 47.86°W
Report Text: SBRP 230300Z 14011KT CAVOK 24/14 Q1017
Loading
Personal Weather Stations






























Interactive Weather Map
Tropical Storm Tracking
New forecast layout! Learn more

10-Day Weather Forecast

Advertisements
Track Severe Weather on mobile